Friendly, West Virginia
Current Conditions -  °F | °C
As of 3:53 AM on Saturday 29 Nov 2014 (Local Time) from KPKB Reporting Station
Clear Clear  
Wind Chill: 31°   Ceiling: Unl
Heat Index: 31°   Visibility: 10mi
Dew Point: 19°   Wind: 3mph
Humidity: 61%   Direction: 120°ESE
Pressure: 30.17"   Gusts: NA
Location:  39.52°N, 81.06°W
Report Text: KPKB 290853Z AUTO 12003KT 10SM CLR M01/M07 A3017 RMK AO2 SLP223 T10061072 58005
Loading
Personal Weather Stations






























Interactive Weather Map New forecast layout! Learn more

10-Day Weather Forecast

Advertisements
Track Severe Weather on mobile